St John, Virgin Islands
Current Conditions -  °F | °C
As of 8:53 PM on Friday 24 Oct 2014 (Local Time) from TIST Reporting Station
Clear Clear  
Wind Chill: 82°   Ceiling: Unl
Heat Index: 89°   Visibility: 10mi
Dew Point: 75°   Wind: 7mph
Humidity: 79%   Direction: 90°E
Pressure: 29.91"   Gusts: NA
Location:  18.3333°N, 64.7943°W
Report Text: TIST 250053Z 09006KT 10SM CLR 28/24 A2991 RMK AO2 SLP130 T02780239
Loading
Personal Weather Stations






























Interactive Weather Map New forecast layout! Learn more

10-Day Weather Forecast

Advertisements
Track Severe Weather on mobile